Selma, Ohio
Current Conditions -  °F | °C
As of 7:56 AM on Thursday 30 Oct 2014 (Local Time) from KSGH Reporting Station
Overcast Overcast  
Wind Chill: 41°   Ceiling: 3900
Heat Index: 41°   Visibility: 9mi
Dew Point: 37°   Wind: 3mph
Humidity: 85%   Direction: 200°SSW
Pressure: 30.16"   Gusts: NA
Location:  39.8457°N, 83.6528°W
Report Text: KSGH 301156Z AUTO 20003KT 9SM OVC039 05/03 A3016 RMK AO2 51009 T00500027 10061 20050 SLP215
Loading
Personal Weather Stations






























Interactive Weather Map
Tropical Storm Tracking
New forecast layout! Learn more

10-Day Weather Forecast

Advertisements
Track Severe Weather on mobile